Time;durP1;ratioP1;P1;durP2;ratioP2;P2;SDS_P1;SDS_P2;PMS_P1;PMS_P2;Temp;Humidity;BMP_temperature;BMP_pressure;BME280_temperature;BME280_humidity;BME280_pressure;Samples;Min_cycle;Max_cycle;Signal;HPM_P1;HPM_P2
2021/12/16 00:06:51;;;;;;;10.35;7.18;;;2.70;77.10;;;;;;5057250;28;20437;-35
2021/12/16 00:09:09;;;;;;;10.73;7.22;;;2.70;77.10;;;;;;5056908;28;20139;-36
2021/12/16 05:53:29;;;;;;;4.10;2.60;;;2.80;80.40;;;;;;5016615;28;20076;-35
2021/12/16 05:55:56;;;;;;;5.50;3.92;;;2.80;80.40;;;;;;5039618;28;20033;-38
2021/12/16 05:58:23;;;;;;;6.00;3.70;;;2.80;80.60;;;;;;5039296;28;20079;-45
2021/12/16 06:00:52;;;;;;;5.55;2.97;;;2.90;80.70;;;;;;5038935;28;20028;-45
2021/12/16 06:03:18;;;;;;;6.93;4.28;;;2.90;80.60;;;;;;5039359;28;20402;-41
2021/12/16 06:05:44;;;;;;;7.13;4.20;;;2.90;80.30;;;;;;5039417;28;20279;-38
2021/12/16 06:08:10;;;;;;;6.32;4.40;;;3.00;80.20;;;;;;5039420;28;20095;-37
2021/12/16 06:13:12;;;;;;;10.65;6.35;;;3.10;80.00;;;;;;5039471;28;20045;-44
2021/12/16 06:26:32;;;;;;;10.85;6.70;;;3.20;79.50;;;;;;5039384;28;20391;-37
2021/12/16 06:28:58;;;;;;;9.98;5.25;;;3.20;79.30;;;;;;5038768;28;20038;-44
2021/12/16 06:31:24;;;;;;;10.98;5.55;;;3.20;79.30;;;;;;5038911;28;20299;-45
2021/12/16 06:33:50;;;;;;;10.00;5.40;;;3.20;79.40;;;;;;5038611;28;20040;-45
2021/12/16 06:36:16;;;;;;;15.57;7.10;;;3.20;79.40;;;;;;5039038;28;20337;-45
2021/12/16 06:38:41;;;;;;;15.80;7.53;;;3.20;79.40;;;;;;5037129;28;20109;-37
2021/12/16 06:41:08;;;;;;;19.30;7.57;;;3.20;79.40;;;;;;5038492;28;20029;-36
2021/12/16 06:43:35;;;;;;;20.30;9.32;;;3.20;79.40;;;;;;5038189;28;20029;-44
2021/12/16 06:46:04;;;;;;;19.15;9.55;;;3.20;79.40;;;;;;5038689;28;20045;-37
2021/12/16 06:48:33;;;;;;;20.98;8.70;;;3.20;79.50;;;;;;5038164;28;20029;-38
2021/12/16 06:51:05;;;;;;;22.38;10.27;;;3.30;79.50;;;;;;5038334;28;20103;-43
2021/12/16 06:53:43;;;;;;;24.95;12.40;;;3.20;79.30;;;;;;5038612;28;20441;-34
2021/12/16 06:56:17;;;;;;;17.23;9.25;;;3.20;79.30;;;;;;5038292;28;20041;-40
2021/12/16 06:58:48;;;;;;;14.10;7.78;;;3.30;79.50;;;;;;5038271;28;20092;-36
2021/12/16 07:01:30;;;;;;;13.07;6.75;;;3.30;79.50;;;;;;5038399;28;20044;-43
2021/12/16 07:03:58;;;;;;;13.63;6.70;;;3.30;79.50;;;;;;5037963;28;20030;-44
2021/12/16 07:06:28;;;;;;;11.80;6.55;;;3.30;79.60;;;;;;5038344;28;20038;-38
2021/12/16 07:08:59;;;;;;;18.20;8.10;;;3.30;79.60;;;;;;5038185;28;20495;-34
2021/12/16 07:11:24;;;;;;;;;;;3.30;79.60;;;;;;5038875;28;20089;-44
2021/12/16 07:13:58;;;;;;;17.83;8.73;;;3.40;79.60;;;;;;5037880;28;19948;-45
2021/12/16 07:16:26;;;;;;;13.30;7.47;;;3.30;79.40;;;;;;5038406;28;20353;-39
2021/12/16 07:18:53;;;;;;;14.25;7.85;;;3.30;79.60;;;;;;5037655;28;20453;-37
2021/12/16 07:21:19;;;;;;;16.58;9.75;;;3.30;79.60;;;;;;5038197;28;20033;-45
2021/12/16 07:23:45;;;;;;;24.15;12.10;;;3.40;79.60;;;;;;5037354;28;20041;-36
2021/12/16 07:26:11;;;;;;;16.15;9.32;;;3.40;79.30;;;;;;5037761;28;20021;-39
2021/12/16 07:28:36;;;;;;;15.02;9.10;;;3.40;79.30;;;;;;5037690;28;20108;-43
2021/12/16 07:31:02;;;;;;;13.20;7.63;;;3.40;79.20;;;;;;5037797;28;20055;-38
2021/12/16 07:33:28;;;;;;;15.38;7.68;;;3.40;79.20;;;;;;5037725;28;20021;-35
2021/12/16 07:35:55;;;;;;;16.77;9.10;;;3.40;79.20;;;;;;5037848;28;20034;-45
2021/12/16 07:38:21;;;;;;;14.70;8.00;;;3.40;79.20;;;;;;5037855;28;20056;-35
2021/12/16 07:40:49;;;;;;;13.00;7.72;;;3.40;79.10;;;;;;5037671;28;20061;-36
2021/12/16 07:46:11;;;;;;;14.82;8.23;;;3.50;78.80;;;;;;5041058;28;20311;-38
2021/12/16 07:48:38;;;;;;;17.08;8.60;;;3.40;78.70;;;;;;5037426;28;20036;-45
2021/12/16 07:51:06;;;;;;;17.08;8.40;;;3.40;78.90;;;;;;5037241;28;20040;-44
2021/12/16 07:53:32;;;;;;;17.25;8.80;;;3.40;79.20;;;;;;5036843;28;20065;-39
2021/12/16 07:55:59;;;;;;;16.70;9.40;;;3.40;79.20;;;;;;5037233;28;20038;-35
2021/12/16 07:58:25;;;;;;;16.83;9.70;;;3.40;79.30;;;;;;5036815;28;20116;-41
2021/12/16 08:00:53;;;;;;;18.90;10.27;;;3.40;79.40;;;;;;5036994;28;20111;-45
2021/12/16 08:03:19;;;;;;;20.52;10.05;;;3.40;79.30;;;;;;5036580;28;20032;-39
2021/12/16 08:05:54;;;;;;;21.83;11.77;;;3.40;79.30;;;;;;5037171;28;20040;-45
2021/12/16 08:08:22;;;;;;;21.13;12.98;;;3.40;79.50;;;;;;5037231;28;20039;-39
2021/12/16 08:10:49;;;;;;;21.55;11.90;;;3.40;79.70;;;;;;5036315;28;20041;-38
2021/12/16 08:13:16;;;;;;;20.92;11.88;;;3.50;79.70;;;;;;5036804;28;20040;-39
2021/12/16 08:15:42;;;;;;;30.25;16.10;;;3.50;79.70;;;;;;5036694;28;20041;-41
2021/12/16 08:18:08;;;;;;;34.38;15.70;;;3.50;79.70;;;;;;5036819;28;20361;-39
2021/12/16 08:20:33;;;;;;;32.05;15.30;;;3.50;79.90;;;;;;5036091;28;20029;-36
2021/12/16 08:23:00;;;;;;;29.63;14.70;;;3.60;79.90;;;;;;5036801;28;20032;-39
2021/12/16 08:25:28;;;;;;;29.98;14.60;;;3.60;79.80;;;;;;5036586;28;20403;-39
2021/12/16 08:27:55;;;;;;;28.45;14.75;;;3.60;79.60;;;;;;5036145;28;20437;-45
2021/12/16 08:30:25;;;;;;;30.02;14.70;;;3.60;79.60;;;;;;5035028;28;20025;-46
2021/12/16 08:32:51;;;;;;;29.55;15.00;;;3.60;79.60;;;;;;5036768;28;20037;-38
2021/12/16 08:35:17;;;;;;;24.95;13.48;;;3.70;79.60;;;;;;5036230;28;20311;-46
2021/12/16 08:37:42;;;;;;;27.77;14.93;;;3.70;79.50;;;;;;5038858;28;20299;-38
2021/12/16 08:40:13;;;;;;;30.80;15.02;;;3.70;79.50;;;;;;5044833;28;20027;-40
2021/12/16 08:42:39;;;;;;;29.17;13.02;;;3.70;79.60;;;;;;5035847;28;20022;-46
2021/12/16 08:45:09;;;;;;;25.98;12.18;;;3.70;79.60;;;;;;5036179;28;20313;-45
2021/12/16 08:47:35;;;;;;;24.75;12.57;;;3.80;79.60;;;;;;5036338;28;20026;-39
2021/12/16 08:50:01;;;;;;;25.75;12.68;;;3.80;79.60;;;;;;5036365;28;20372;-45
2021/12/16 08:52:27;;;;;;;23.55;12.48;;;3.80;79.50;;;;;;5036528;28;20033;-39
2021/12/16 08:54:53;;;;;;;21.63;11.30;;;3.90;79.40;;;;;;5035658;28;20417;-37
2021/12/16 08:57:19;;;;;;;29.35;15.13;;;3.90;79.40;;;;;;5036352;28;20486;-44
2021/12/16 08:59:47;;;;;;;30.35;13.93;;;3.90;79.30;;;;;;5035781;28;20037;-45
2021/12/16 09:02:13;;;;;;;23.83;11.77;;;4.00;79.20;;;;;;5036067;28;20136;-37
2021/12/16 09:04:40;;;;;;;25.73;12.43;;;3.90;78.90;;;;;;5035258;28;20124;-39
2021/12/16 09:07:10;;;;;;;31.25;15.18;;;4.00;79.00;;;;;;5035402;28;20041;-38
2021/12/16 09:09:40;;;;;;;27.75;13.30;;;4.00;79.10;;;;;;5035674;28;20029;-37
2021/12/16 09:12:14;;;;;;;27.25;12.45;;;4.00;79.10;;;;;;5035920;28;20430;-37
2021/12/16 09:14:43;;;;;;;26.08;13.15;;;4.00;79.10;;;;;;5035553;28;20067;-35
2021/12/16 09:17:13;;;;;;;29.55;15.07;;;4.00;79.20;;;;;;5035514;28;20041;-45
2021/12/16 09:19:41;;;;;;;32.78;14.98;;;4.00;79.20;;;;;;5035470;28;20034;-45
2021/12/16 09:22:09;;;;;;;22.10;11.63;;;4.00;79.20;;;;;;5035839;28;20068;-45
2021/12/16 09:24:35;;;;;;;26.33;13.68;;;4.00;79.20;;;;;;5035915;28;20033;-39
2021/12/16 09:27:01;;;;;;;25.27;13.18;;;4.10;79.20;;;;;;5035779;28;20029;-45
2021/12/16 09:29:27;;;;;;;25.80;12.68;;;4.10;79.20;;;;;;5035672;28;20040;-44
2021/12/16 09:31:53;;;;;;;25.65;13.38;;;4.10;79.20;;;;;;5035575;28;20040;-40
2021/12/16 09:34:18;;;;;;;26.15;13.15;;;4.10;79.20;;;;;;5035411;28;20026;-36
2021/12/16 09:36:45;;;;;;;22.80;12.55;;;4.10;79.10;;;;;;5035331;28;20126;-40
2021/12/16 09:39:16;;;;;;;20.98;9.90;;;4.10;79.00;;;;;;5034916;28;20030;-45
2021/12/16 09:41:46;;;;;;;21.75;11.57;;;4.10;78.80;;;;;;5035496;28;20025;-45
2021/12/16 09:44:12;;;;;;;21.23;12.48;;;4.10;78.70;;;;;;5035260;28;20318;-44
2021/12/16 09:46:40;;;;;;;20.52;10.70;;;4.10;78.80;;;;;;5035462;28;20041;-49
2021/12/16 09:49:06;;;;;;;22.13;11.63;;;4.10;78.90;;;;;;5035179;28;20029;-38
2021/12/16 09:51:34;;;;;;;19.23;10.38;;;4.10;78.80;;;;;;5035652;28;20381;-38
2021/12/16 09:54:06;;;;;;;18.65;9.77;;;4.00;78.70;;;;;;5034937;28;20315;-37
2021/12/16 09:56:33;;;;;;;18.58;10.25;;;4.00;78.80;;;;;;5035312;28;20091;-44
2021/12/16 09:59:01;;;;;;;18.25;10.10;;;4.00;78.80;;;;;;5035113;28;20083;-40
2021/12/16 10:01:28;;;;;;;17.88;9.65;;;4.00;78.80;;;;;;5035427;28;20017;-45
2021/12/16 10:04:00;;;;;;;19.20;9.75;;;4.00;78.70;;;;;;5033637;28;20025;-37
2021/12/16 10:06:27;;;;;;;23.27;12.15;;;4.00;79.10;;;;;;5035421;28;20080;-37
2021/12/16 10:08:52;;;;;;;19.70;10.70;;;4.00;79.20;;;;;;5034809;28;20030;-45
2021/12/16 10:11:18;;;;;;;20.73;10.05;;;4.00;79.40;;;;;;5035094;28;20055;-45
2021/12/16 10:14:02;;;;;;;15.02;9.63;;;4.10;79.30;;;;;;5034714;28;20132;-36
2021/12/16 10:19:16;;;;;;;24.42;10.75;;;4.10;79.00;;;;;;5055003;28;20360;-37
2021/12/16 10:21:43;;;;;;;19.30;10.05;;;4.10;78.90;;;;;;5054829;28;20025;-36
2021/12/16 10:24:30;;;;;;;17.98;10.50;;;4.10;78.80;;;;;;5054405;28;20043;-44
2021/12/16 10:27:10;;;;;;;19.02;10.20;;;4.20;78.60;;;;;;5057003;28;20079;-44
2021/12/16 10:29:39;;;;;;;19.23;10.25;;;4.10;78.70;;;;;;5058669;28;20355;-38
2021/12/16 10:32:26;;;;;;;22.50;10.40;;;4.20;78.80;;;;;;5058148;28;20033;-45
2021/12/16 10:34:59;;;;;;;18.83;10.20;;;4.20;78.80;;;;;;5051767;28;20069;-45
2021/12/16 10:37:34;;;;;;;22.67;10.75;;;4.20;78.70;;;;;;5038359;28;20125;-45
2021/12/16 10:40:21;;;;;;;16.60;9.98;;;4.20;78.90;;;;;;5038704;28;20096;-38
2021/12/16 10:42:47;;;;;;;17.67;9.02;;;4.20;78.80;;;;;;5038016;28;20075;-45
2021/12/16 10:45:32;;;;;;;16.65;9.23;;;4.20;78.80;;;;;;5038326;28;20414;-45
2021/12/16 10:48:11;;;;;;;22.30;10.52;;;4.30;78.70;;;;;;5038250;28;20030;-46
2021/12/16 10:50:58;;;;;;;16.75;9.25;;;4.30;78.50;;;;;;5037219;28;20026;-38
2021/12/16 10:53:48;;;;;;;21.80;12.20;;;4.40;78.10;;;;;;5038463;28;20022;-38
2021/12/16 10:56:16;;;;;;;21.88;11.13;;;4.40;78.20;;;;;;5037720;28;20065;-45
2021/12/16 10:59:02;;;;;;;27.90;11.40;;;4.40;78.20;;;;;;5037615;28;20025;-37
2021/12/16 11:01:47;;;;;;;21.02;10.93;;;4.50;77.90;;;;;;5038271;28;20109;-45
2021/12/16 11:04:35;;;;;;;24.45;11.15;;;4.50;77.60;;;;;;5038014;28;20025;-44
2021/12/16 11:07:13;;;;;;;20.90;10.77;;;4.50;77.40;;;;;;5037950;28;20488;-44
2021/12/16 11:09:52;;;;;;;22.00;11.93;;;4.50;77.50;;;;;;5037890;28;20026;-45
2021/12/16 11:12:36;;;;;;;21.73;11.00;;;4.50;77.50;;;;;;5038299;28;20041;-38
2021/12/16 11:15:35;;;;;;;21.88;11.93;;;4.50;77.60;;;;;;5037762;28;20061;-39
2021/12/16 11:18:03;;;;;;;25.42;13.55;;;4.50;77.50;;;;;;5036523;28;20063;-45
2021/12/16 11:20:38;;;;;;;28.40;15.48;;;4.50;77.40;;;;;;5037977;28;20025;-36
2021/12/16 11:23:27;;;;;;;31.25;14.80;;;4.50;77.40;;;;;;5037405;28;20061;-45
2021/12/16 11:26:15;;;;;;;23.23;12.50;;;4.60;77.30;;;;;;5036423;28;20052;-45
2021/12/16 11:28:42;;;;;;;20.92;11.25;;;4.50;77.20;;;;;;5037457;28;20428;-45
2021/12/16 11:31:12;;;;;;;19.60;10.38;;;4.50;77.20;;;;;;5037292;28;20330;-37
2021/12/16 11:33:44;;;;;;;23.83;11.57;;;4.60;77.20;;;;;;5036950;28;20040;-45
2021/12/16 11:36:21;;;;;;;24.05;13.30;;;4.50;76.80;;;;;;5037179;28;20049;-36
2021/12/16 11:38:48;;;;;;;20.60;11.73;;;4.50;76.90;;;;;;5036012;28;20748;-44
2021/12/16 11:41:22;;;;;;;21.00;11.55;;;4.50;77.00;;;;;;5036522;28;20438;-38
2021/12/16 11:43:53;;;;;;;21.08;12.07;;;4.60;77.00;;;;;;5036753;28;20021;-36
2021/12/16 11:46:33;;;;;;;30.27;14.30;;;4.60;77.00;;;;;;5036766;28;20422;-45
2021/12/16 11:49:16;;;;;;;24.90;12.13;;;4.60;77.20;;;;;;5037003;28;20037;-36
2021/12/16 11:51:45;;;;;;;24.38;12.52;;;4.60;77.20;;;;;;5037312;28;20083;-45
2021/12/16 11:54:26;;;;;;;22.60;12.38;;;4.60;76.90;;;;;;5036626;28;20046;-37
2021/12/16 11:57:12;;;;;;;27.83;12.73;;;4.70;77.00;;;;;;5037243;28;20036;-44
2021/12/16 11:59:51;;;;;;;24.48;13.35;;;4.70;76.90;;;;;;5037176;28;20065;-40
2021/12/16 12:02:40;;;;;;;32.35;19.17;;;4.70;76.80;;;;;;5036847;28;20095;-39
2021/12/16 12:05:45;;;;;;;27.13;13.55;;;4.80;77.00;;;;;;5037020;28;20025;-41
2021/12/16 12:08:21;;;;;;;23.42;11.48;;;4.80;76.70;;;;;;5037096;28;20041;-38
2021/12/16 12:11:12;;;;;;;21.55;11.50;;;4.80;76.60;;;;;;5037216;28;20068;-45
2021/12/16 12:13:44;;;;;;;28.55;14.88;;;4.80;76.50;;;;;;5036497;28;20390;-39
2021/12/16 12:16:19;;;;;;;24.35;12.00;;;4.80;76.30;;;;;;5037129;28;20060;-35
2021/12/16 12:18:45;;;;;;;19.40;10.32;;;4.80;76.20;;;;;;5036568;28;20036;-45
2021/12/16 12:21:19;;;;;;;22.13;12.43;;;4.80;76.30;;;;;;5036915;28;20026;-39
2021/12/16 12:23:46;;;;;;;22.00;11.95;;;4.80;76.40;;;;;;5036533;28;20310;-38
2021/12/16 12:26:16;;;;;;;25.70;13.38;;;4.80;76.50;;;;;;5052283;28;20053;-46
2021/12/16 12:28:47;;;;;;;21.67;12.45;;;4.80;76.30;;;;;;5056374;28;20033;-45
2021/12/16 12:31:16;;;;;;;26.50;14.18;;;4.80;76.20;;;;;;5056090;28;20032;-39
2021/12/16 12:33:41;;;;;;;21.42;11.52;;;4.80;76.90;;;;;;5055965;28;20335;-39
2021/12/16 12:36:08;;;;;;;23.15;12.48;;;4.80;76.30;;;;;;5055917;28;20504;-39
2021/12/16 12:38:36;;;;;;;20.20;11.18;;;4.80;76.30;;;;;;5055860;28;20021;-38
2021/12/16 12:41:04;;;;;;;30.80;20.05;;;4.80;76.20;;;;;;5056083;28;20033;-39
2021/12/16 12:43:33;;;;;;;24.35;12.82;;;4.80;76.20;;;;;;5055828;28;20021;-39
2021/12/16 12:46:00;;;;;;;24.67;13.27;;;4.80;76.40;;;;;;5055611;28;20033;-37
2021/12/16 12:48:26;;;;;;;26.83;14.52;;;4.80;76.60;;;;;;5055029;28;20029;-36
2021/12/16 12:50:57;;;;;;;23.42;12.70;;;4.80;76.80;;;;;;5054245;28;20045;-36
2021/12/16 12:53:31;;;;;;;23.38;12.80;;;4.80;76.60;;;;;;5055947;28;20025;-39
2021/12/16 12:56:19;;;;;;;26.83;13.98;;;4.80;76.40;;;;;;5055742;28;20089;-46
2021/12/16 12:59:12;;;;;;;23.63;11.80;;;4.80;76.50;;;;;;5055226;28;20033;-46
2021/12/16 13:01:40;;;;;;;24.45;13.18;;;4.80;76.30;;;;;;5055231;28;20039;-39
2021/12/16 13:04:13;;;;;;;23.63;12.88;;;4.80;76.50;;;;;;5055075;28;20029;-40
2021/12/16 13:07:08;;;;;;;37.42;20.05;;;4.80;76.60;;;;;;5055003;28;20289;-46
2021/12/16 13:09:48;;;;;;;50.13;28.52;;;4.70;76.70;;;;;;5054995;28;20109;-36
2021/12/16 13:12:59;;;;;;;36.83;20.27;;;4.70;77.00;;;;;;5055608;28;20037;-36
2021/12/16 13:15:36;;;;;;;28.23;17.48;;;4.80;77.00;;;;;;5055244;28;20291;-38
2021/12/16 13:26:43;;;;;;;28.70;14.95;;;4.80;77.20;;;;;;5055830;28;20051;-44
2021/12/16 13:30:04;;;;;;;28.50;14.00;;;4.80;77.20;;;;;;5055482;28;20029;-38
2021/12/16 13:32:38;;;;;;;29.13;14.40;;;4.80;77.20;;;;;;5055199;28;20449;-44
2021/12/16 13:37:57;;;;;;;23.48;13.68;;;4.90;77.30;;;;;;5055893;28;20448;-37
2021/12/16 13:40:30;;;;;;;30.48;15.52;;;4.90;77.20;;;;;;5055719;28;20397;-44
2021/12/16 13:43:12;;;;;;;25.38;14.23;;;4.90;77.10;;;;;;5055552;28;20037;-36
2021/12/16 13:45:50;;;;;;;26.55;14.18;;;4.90;76.80;;;;;;5055191;28;20091;-37
2021/12/16 14:07:26;;;;;;;40.92;20.88;;;4.80;77.40;;;;;;5058632;28;20039;-46
2021/12/16 14:10:01;;;;;;;44.05;19.63;;;4.80;77.50;;;;;;5058758;28;20060;-46
2021/12/16 14:23:35;;;;;;;32.97;17.70;;;4.70;77.70;;;;;;5055778;28;20037;-38
2021/12/16 14:26:35;;;;;;;;;;;4.70;77.80;;;;;;5058934;28;20032;-32
2021/12/16 14:45:52;;;;;;;38.35;19.73;;;4.70;78.40;;;;;;5046668;28;20124;-33
2021/12/16 14:48:24;;;;;;;34.83;18.08;;;4.70;78.50;;;;;;5058582;28;20033;-33
2021/12/16 14:51:09;;;;;;;42.47;20.35;;;4.70;78.80;;;;;;5057942;28;20098;-32
2021/12/16 14:53:45;;;;;;;45.78;21.48;;;4.60;78.80;;;;;;5057867;28;20076;-38
2021/12/16 14:56:14;;;;;;;46.42;22.65;;;4.70;78.90;;;;;;5057975;28;20162;-33
2021/12/16 14:58:47;;;;;;;54.53;23.40;;;4.70;79.10;;;;;;5057676;28;20032;-38
2021/12/16 15:01:19;;;;;;;54.60;22.85;;;4.70;79.20;;;;;;5058072;28;20381;-33
2021/12/16 15:03:46;;;;;;;46.88;21.45;;;4.70;79.40;;;;;;5057426;28;20067;-34
2021/12/16 15:06:29;;;;;;;45.28;23.02;;;4.70;79.40;;;;;;5058020;28;20344;-32
2021/12/16 15:09:13;;;;;;;49.00;23.55;;;4.70;79.30;;;;;;5056091;28;20321;-32
2021/12/16 15:12:40;;;;;;;44.80;19.77;;;4.70;79.30;;;;;;5057074;28;20037;-38
2021/12/16 15:31:48;;;;;;;38.08;19.92;;;4.60;79.60;;;;;;5057456;28;20086;-38
2021/12/16 15:42:55;;;;;;;37.17;20.17;;;4.60;80.60;;;;;;5057509;28;20439;-38
2021/12/16 15:45:23;;;;;;;39.05;18.63;;;4.60;80.80;;;;;;5057499;28;20064;-39
2021/12/16 15:48:14;;;;;;;39.15;19.33;;;4.60;80.80;;;;;;5057160;28;20033;-32
2021/12/16 15:50:49;;;;;;;42.05;22.35;;;4.60;80.80;;;;;;5056425;28;20457;-32
2021/12/16 15:53:19;;;;;;;44.40;21.10;;;4.60;81.20;;;;;;5057078;28;20112;-38
2021/12/16 15:55:48;;;;;;;60.63;26.85;;;4.60;81.50;;;;;;5056423;28;20107;-32
2021/12/16 15:58:19;;;;;;;42.80;20.77;;;4.60;81.60;;;;;;5057382;28;20033;-38
2021/12/16 16:00:49;;;;;;;42.30;21.35;;;4.60;81.70;;;;;;5057231;28;20037;-38
2021/12/16 16:03:16;;;;;;;38.58;19.52;;;4.70;81.90;;;;;;5056744;28;20029;-40
2021/12/16 16:05:46;;;;;;;38.30;19.30;;;4.70;82.00;;;;;;5057286;28;20029;-38
2021/12/16 16:08:14;;;;;;;41.60;18.45;;;4.70;82.10;;;;;;5056845;28;20029;-32
2021/12/16 16:10:41;;;;;;;39.67;18.88;;;4.70;82.30;;;;;;5057018;28;20029;-38
2021/12/16 16:13:14;;;;;;;35.95;17.33;;;4.70;82.20;;;;;;5055937;28;20021;-38
2021/12/16 16:15:42;;;;;;;42.13;19.15;;;4.70;82.40;;;;;;5056584;28;20029;-33
2021/12/16 16:18:15;;;;;;;42.45;18.38;;;4.80;82.40;;;;;;5057170;28;20318;-38
2021/12/16 16:20:46;;;;;;;37.15;18.58;;;4.80;82.50;;;;;;5056961;28;20064;-38
2021/12/16 16:23:15;;;;;;;39.33;19.85;;;4.80;82.60;;;;;;5056184;28;20052;-33
2021/12/16 16:25:41;;;;;;;44.75;20.88;;;4.80;82.50;;;;;;5056670;28;20040;-38
2021/12/16 16:28:09;;;;;;;40.53;18.20;;;4.80;82.50;;;;;;5056529;28;20033;-37
2021/12/16 16:30:36;;;;;;;46.15;20.73;;;4.80;82.70;;;;;;5056560;28;20037;-33
2021/12/16 16:33:10;;;;;;;39.22;19.50;;;4.90;82.90;;;;;;5056583;28;20037;-38
2021/12/16 16:35:50;;;;;;;42.10;20.23;;;4.80;82.90;;;;;;5056601;28;20024;-33
2021/12/16 16:38:30;;;;;;;40.97;19.67;;;4.80;83.10;;;;;;5056464;28;20029;-32
2021/12/16 16:40:59;;;;;;;40.47;20.23;;;4.80;83.20;;;;;;5056888;28;20041;-38
2021/12/16 16:43:24;;;;;;;42.92;20.77;;;4.80;83.30;;;;;;5056350;28;20114;-33
2021/12/16 16:45:53;;;;;;;43.67;20.73;;;4.80;83.50;;;;;;5056296;28;20059;-38
2021/12/16 16:51:31;;;;;;;51.90;22.45;;;4.80;84.10;;;;;;5047766;28;20037;-38
2021/12/16 16:54:11;;;;;;;53.10;21.48;;;4.80;84.50;;;;;;5055863;28;20383;-39
2021/12/16 16:56:42;;;;;;;47.97;19.65;;;4.80;84.80;;;;;;5056121;28;20414;-32
2021/12/16 16:59:10;;;;;;;52.30;22.73;;;4.80;84.90;;;;;;5056016;28;20040;-38
2021/12/16 17:01:36;;;;;;;42.97;20.17;;;4.80;85.10;;;;;;5055933;28;20060;-39
2021/12/16 17:04:09;;;;;;;47.03;21.00;;;4.80;85.20;;;;;;5056029;28;20099;-39
2021/12/16 17:06:35;;;;;;;49.72;21.45;;;4.80;85.40;;;;;;5054868;28;20425;-33
2021/12/16 17:09:03;;;;;;;44.80;19.77;;;4.80;85.60;;;;;;5055855;28;20504;-38
2021/12/16 17:11:29;;;;;;;42.25;18.73;;;4.90;86.00;;;;;;5056175;28;20506;-38
2021/12/16 17:14:38;;;;;;;45.05;19.48;;;4.90;86.10;;;;;;5055847;28;20033;-38
2021/12/16 17:17:12;;;;;;;47.33;20.20;;;4.90;86.10;;;;;;5055652;28;20041;-37
2021/12/16 17:19:47;;;;;;;51.97;21.17;;;4.90;86.20;;;;;;5055816;28;20036;-32
2021/12/16 17:22:17;;;;;;;57.30;23.80;;;4.90;86.30;;;;;;5056229;28;20289;-33
2021/12/16 17:24:46;;;;;;;50.55;21.25;;;4.90;86.70;;;;;;5055874;28;20029;-32
2021/12/16 17:27:13;;;;;;;48.22;21.33;;;4.90;86.80;;;;;;5056195;28;20033;-33
2021/12/16 17:29:51;;;;;;;50.20;22.17;;;4.90;87.10;;;;;;5055698;28;20048;-38
2021/12/16 17:32:23;;;;;;;45.13;20.95;;;4.90;87.40;;;;;;5055749;28;20033;-32
2021/12/16 17:35:12;;;;;;;41.58;19.30;;;4.90;87.40;;;;;;5055387;28;20413;-38
2021/12/16 17:37:52;;;;;;;39.50;19.20;;;4.90;88.00;;;;;;5055010;28;20043;-33
2021/12/16 17:40:25;;;;;;;43.28;19.17;;;4.90;87.60;;;;;;5055689;28;20409;-32
2021/12/16 17:42:58;;;;;;;36.92;16.63;;;4.90;87.80;;;;;;5055788;28;20413;-33
2021/12/16 17:45:32;;;;;;;31.10;15.32;;;4.90;87.80;;;;;;5055520;28;20021;-38
2021/12/16 17:48:01;;;;;;;36.25;15.55;;;4.90;88.00;;;;;;5055613;28;20028;-33
2021/12/16 17:50:39;;;;;;;28.33;13.65;;;4.90;88.30;;;;;;5055578;28;20116;-38
2021/12/16 17:53:05;;;;;;;33.88;14.32;;;4.90;88.40;;;;;;5055870;28;20090;-38
2021/12/16 17:55:37;;;;;;;32.50;15.68;;;4.90;88.70;;;;;;5054840;28;20340;-32
2021/12/16 17:58:10;;;;;;;30.83;14.35;;;5.00;88.80;;;;;;5055407;28;20052;-32
2021/12/16 18:00:54;;;;;;;34.10;15.30;;;5.00;88.80;;;;;;5055196;28;20033;-32
2021/12/16 18:03:25;;;;;;;36.17;17.50;;;5.00;88.70;;;;;;5055716;28;20060;-37
2021/12/16 18:05:56;;;;;;;33.33;14.88;;;5.00;88.90;;;;;;5055512;28;20029;-33
2021/12/16 18:08:35;;;;;;;29.75;15.23;;;5.00;89.00;;;;;;5055694;28;20037;-38
2021/12/16 18:11:17;;;;;;;32.38;15.98;;;5.00;88.90;;;;;;5055433;28;20321;-32
2021/12/16 18:13:50;;;;;;;34.08;16.00;;;5.00;88.90;;;;;;5054777;28;20108;-39
2021/12/16 18:16:30;;;;;;;31.88;15.40;;;5.00;89.20;;;;;;5055394;28;20036;-38
2021/12/16 18:18:59;;;;;;;31.90;14.55;;;5.00;89.10;;;;;;5055032;28;20056;-38
2021/12/16 18:21:25;;;;;;;28.48;14.77;;;5.00;89.30;;;;;;5055266;28;20099;-38
2021/12/16 18:23:58;;;;;;;30.98;15.57;;;5.00;89.30;;;;;;5055032;28;20106;-33
2021/12/16 18:26:30;;;;;;;32.72;14.77;;;5.00;89.40;;;;;;5055512;28;20368;-38
2021/12/16 18:28:56;;;;;;;31.90;14.75;;;5.00;89.60;;;;;;5055141;28;20060;-32
2021/12/16 18:31:28;;;;;;;34.92;15.90;;;5.00;89.60;;;;;;5055551;28;20482;-33
2021/12/16 18:33:57;;;;;;;32.25;16.42;;;5.00;89.80;;;;;;5054904;28;20028;-38
2021/12/16 18:36:35;;;;;;;36.22;16.45;;;5.10;89.80;;;;;;5055372;28;20384;-33
2021/12/16 18:39:10;;;;;;;31.58;15.50;;;5.10;90.20;;;;;;5055241;28;20480;-38
2021/12/16 18:41:59;;;;;;;38.15;16.65;;;5.10;90.00;;;;;;5055245;28;20409;-32
2021/12/16 18:44:34;;;;;;;32.53;16.85;;;5.10;89.90;;;;;;5055231;28;20021;-38
2021/12/16 18:47:21;;;;;;;32.15;15.90;;;5.10;90.00;;;;;;5056044;28;20428;-33
2021/12/16 18:49:49;;;;;;;32.42;15.05;;;5.10;90.10;;;;;;5058841;28;20104;-38
2021/12/16 18:52:30;;;;;;;34.38;15.15;;;5.10;90.10;;;;;;5058986;28;20324;-38
2021/12/16 18:54:56;;;;;;;36.78;16.10;;;5.10;90.10;;;;;;5057762;28;20067;-33
2021/12/16 18:57:22;;;;;;;33.05;16.60;;;5.10;90.10;;;;;;5058596;28;20037;-38
2021/12/16 18:59:51;;;;;;;34.70;15.57;;;5.10;90.20;;;;;;5058406;28;20029;-38
2021/12/16 19:02:21;;;;;;;36.97;16.70;;;5.10;90.20;;;;;;5058381;28;20441;-38
2021/12/16 19:04:55;;;;;;;33.67;15.63;;;5.10;90.40;;;;;;5058194;28;20064;-34
2021/12/16 19:07:25;;;;;;;38.65;17.40;;;5.10;90.20;;;;;;5058385;28;20053;-38
2021/12/16 19:09:52;;;;;;;36.00;16.58;;;5.10;90.30;;;;;;5057006;28;20033;-33
2021/12/16 19:12:23;;;;;;;38.97;17.55;;;5.20;90.40;;;;;;5058505;28;20037;-38
2021/12/16 19:14:55;;;;;;;31.58;16.25;;;5.20;90.70;;;;;;5058374;28;20028;-38
2021/12/16 19:17:21;;;;;;;36.25;17.50;;;5.20;90.40;;;;;;5057064;28;20087;-38
2021/12/16 19:19:49;;;;;;;37.25;17.05;;;5.20;90.50;;;;;;5057979;28;20406;-38
2021/12/16 19:22:17;;;;;;;38.40;17.05;;;5.20;90.60;;;;;;5057117;28;20028;-38
2021/12/16 19:24:45;;;;;;;31.88;16.98;;;5.20;90.50;;;;;;5057966;28;20029;-33
2021/12/16 19:27:14;;;;;;;37.80;18.92;;;5.20;90.50;;;;;;5057878;28;20025;-33
2021/12/16 19:29:43;;;;;;;37.22;17.52;;;5.30;90.60;;;;;;5057866;28;20032;-32
2021/12/16 19:32:10;;;;;;;41.33;18.00;;;5.20;90.60;;;;;;5057837;28;20364;-38
2021/12/16 19:34:36;;;;;;;38.90;17.83;;;5.30;90.60;;;;;;5057512;28;20025;-39
2021/12/16 19:37:02;;;;;;;36.97;17.50;;;5.30;90.60;;;;;;5057931;28;20421;-38
2021/12/16 19:39:28;;;;;;;42.83;18.45;;;5.30;90.60;;;;;;5057529;28;20116;-39
2021/12/16 19:41:54;;;;;;;43.35;19.23;;;5.30;90.60;;;;;;5057845;28;20029;-33
2021/12/16 19:44:25;;;;;;;42.45;18.77;;;5.30;90.50;;;;;;5057326;28;20115;-38
2021/12/16 19:46:51;;;;;;;40.33;18.30;;;5.30;90.60;;;;;;5057584;28;20059;-39
2021/12/16 19:49:19;;;;;;;40.95;18.20;;;5.30;90.60;;;;;;5057536;28;20317;-32
2021/12/16 19:51:47;;;;;;;41.40;20.27;;;5.30;90.60;;;;;;5057594;28;20044;-38
2021/12/16 19:54:13;;;;;;;38.63;18.42;;;5.30;90.70;;;;;;5057134;28;20049;-38
2021/12/16 19:56:40;;;;;;;39.55;16.80;;;5.30;90.80;;;;;;5057332;28;20041;-32
2021/12/16 19:59:06;;;;;;;55.92;19.98;;;5.30;90.70;;;;;;5056335;28;20041;-33
2021/12/16 20:01:35;;;;;;;42.55;18.80;;;5.30;90.70;;;;;;5057526;28;20405;-39
2021/12/16 20:04:06;;;;;;;40.42;18.45;;;5.30;90.90;;;;;;5057107;28;20060;-37
2021/12/16 20:06:35;;;;;;;38.80;18.35;;;5.30;91.00;;;;;;5057617;28;20103;-33
2021/12/16 20:09:04;;;;;;;46.00;19.00;;;5.30;91.10;;;;;;5057080;28;20032;-38
2021/12/16 20:11:33;;;;;;;49.63;20.02;;;5.30;91.00;;;;;;5057452;28;20041;-33
2021/12/16 20:13:59;;;;;;;44.70;19.15;;;5.30;91.00;;;;;;5057006;28;20044;-33
2021/12/16 20:16:38;;;;;;;48.97;19.60;;;5.30;91.10;;;;;;5057419;28;20055;-34
2021/12/16 20:19:07;;;;;;;43.05;18.95;;;5.30;91.20;;;;;;5056714;28;20065;-33
2021/12/16 20:21:40;;;;;;;44.25;20.00;;;5.40;91.20;;;;;;5057100;28;20302;-33
2021/12/16 20:24:14;;;;;;;45.88;20.40;;;5.40;91.30;;;;;;5057078;28;20028;-32
2021/12/16 20:26:47;;;;;;;43.85;19.02;;;5.40;91.30;;;;;;5056930;28;20033;-38
2021/12/16 20:29:22;;;;;;;52.50;19.67;;;5.40;91.20;;;;;;5056929;28;20040;-38
2021/12/16 20:32:04;;;;;;;40.90;18.63;;;5.40;91.30;;;;;;5056822;28;20055;-32
2021/12/16 20:34:38;;;;;;;45.55;19.25;;;5.40;91.20;;;;;;5056547;28;20049;-33
2021/12/16 20:37:07;;;;;;;49.83;21.42;;;5.40;91.20;;;;;;5056824;28;20029;-38
2021/12/16 20:39:37;;;;;;;43.63;20.15;;;5.40;91.20;;;;;;5056582;28;20047;-33